createdAt,value
2023-03-28T00:01:10.781Z,2.30
2023-03-28T00:03:41.398Z,2.50
2023-03-28T00:06:18.371Z,2.30
2023-03-28T00:08:47.398Z,2.20
2023-03-28T00:11:22.206Z,2.20
2023-03-28T00:13:58.342Z,2.30
2023-03-28T00:16:26.144Z,2.30
2023-03-28T00:18:53.235Z,2.30
2023-03-28T00:21:34.055Z,2.30
2023-03-28T00:24:04.840Z,2.40
2023-03-28T00:26:35.467Z,2.30
2023-03-28T00:29:05.383Z,2.30
2023-03-28T00:31:34.833Z,2.30
2023-03-28T00:34:02.328Z,2.40
2023-03-28T00:36:29.774Z,2.10
2023-03-28T00:38:57.932Z,2.40
2023-03-28T00:41:31.081Z,2.20
2023-03-28T00:44:00.176Z,2.10
2023-03-28T00:46:40.262Z,2.30
2023-03-28T00:49:21.553Z,2.20
2023-03-28T00:51:59.692Z,2.10
2023-03-28T00:54:32.022Z,1.80
2023-03-28T00:57:02.285Z,1.60
2023-03-28T00:59:34.405Z,1.30
2023-03-28T01:02:01.767Z,1.10
2023-03-28T01:04:36.364Z,1.20
2023-03-28T01:07:04.441Z,1.30
2023-03-28T01:09:31.583Z,1.40
2023-03-28T01:11:59.792Z,1.60
2023-03-28T01:14:29.541Z,1.60
2023-03-28T01:16:57.642Z,1.60
2023-03-28T01:19:59.069Z,1.50
2023-03-28T01:22:56.972Z,1.50
2023-03-28T01:25:57.546Z,1.20
2023-03-28T01:28:54.889Z,0.90
2023-03-28T01:31:55.014Z,0.80
2023-03-28T01:34:46.129Z,1.10
2023-03-28T01:37:32.708Z,1.20
2023-03-28T01:40:30.804Z,1.10
2023-03-28T01:43:25.715Z,0.90
2023-03-28T01:46:31.575Z,0.80
2023-03-28T01:49:08.079Z,0.60
2023-03-28T01:52:24.399Z,0.40
2023-03-28T01:55:30.296Z,0.30
2023-03-28T01:58:21.485Z,0.20
2023-03-28T02:01:08.002Z,0.30
2023-03-28T02:03:42.991Z,0.50
2023-03-28T02:06:11.757Z,0.80
2023-03-28T02:08:41.970Z,0.90
2023-03-28T02:11:10.828Z,0.90
2023-03-28T02:13:46.051Z,0.70
2023-03-28T02:16:13.658Z,0.90
2023-03-28T02:18:48.033Z,0.90
2023-03-28T02:21:24.675Z,1.00
2023-03-28T02:23:54.336Z,1.30
2023-03-28T02:26:24.248Z,1.40
2023-03-28T02:28:56.888Z,1.20
2023-03-28T02:31:25.003Z,1.30
2023-03-28T02:33:53.509Z,1.10
2023-03-28T02:37:04.810Z,1.20
2023-03-28T02:39:52.557Z,1.10
2023-03-28T02:42:41.528Z,1.20
2023-03-28T02:45:33.198Z,1.30
2023-03-28T02:48:29.464Z,1.30
2023-03-28T02:51:50.697Z,1.20
2023-03-28T02:54:23.278Z,1.20
2023-03-28T02:57:08.228Z,1.20
2023-03-28T02:59:56.406Z,1.00
2023-03-28T03:02:24.021Z,0.90
2023-03-28T03:04:51.843Z,0.90
2023-03-28T03:07:19.452Z,0.90
2023-03-28T03:09:47.156Z,1.10
2023-03-28T03:12:14.334Z,1.20
2023-03-28T03:14:42.094Z,1.00
2023-03-28T03:17:08.996Z,0.90
2023-03-28T03:19:36.340Z,1.10
2023-03-28T03:22:03.721Z,1.00
2023-03-28T03:24:30.680Z,1.00
2023-03-28T03:26:57.645Z,1.00
2023-03-28T03:29:24.690Z,1.00
2023-03-28T03:31:51.676Z,1.20
2023-03-28T03:34:19.013Z,1.30
2023-03-28T03:36:46.219Z,1.20
2023-03-28T03:39:13.437Z,1.10
2023-03-28T03:41:40.342Z,1.10
2023-03-28T03:44:07.361Z,1.00
2023-03-28T03:46:34.394Z,0.80
2023-03-28T03:49:01.365Z,0.60
2023-03-28T03:51:28.253Z,0.60
2023-03-28T03:53:55.330Z,0.60
2023-03-28T03:56:22.738Z,0.50
2023-03-28T03:58:49.706Z,0.50
2023-03-28T04:01:16.646Z,0.60
2023-03-28T04:03:43.621Z,0.60
2023-03-28T04:06:10.809Z,0.50
2023-03-28T04:08:37.729Z,0.50
2023-03-28T04:11:05.217Z,0.60
2023-03-28T04:13:32.091Z,0.30
2023-03-28T04:15:59.346Z,0.30
2023-03-28T04:18:29.762Z,0.10
2023-03-28T04:20:59.753Z,-0.10
2023-03-28T04:23:26.846Z,-0.20
2023-03-28T04:25:58.085Z,-0.20
2023-03-28T04:28:27.676Z,-0.20
2023-03-28T04:30:58.287Z,-0.10
2023-03-28T04:33:27.625Z,-0.10
2023-03-28T04:35:57.354Z,0.00
2023-03-28T04:38:28.715Z,0.10
2023-03-28T04:40:59.265Z,0.00
2023-03-28T04:43:27.558Z,0.00
2023-03-28T04:45:55.327Z,0.30
2023-03-28T04:48:23.758Z,0.30
2023-03-28T04:50:51.200Z,-0.10
2023-03-28T04:53:19.002Z,-0.20
2023-03-28T04:55:50.339Z,-0.20
2023-03-28T04:58:19.692Z,-0.20
2023-03-28T05:00:47.370Z,-0.20
2023-03-28T05:03:20.038Z,0.10
2023-03-28T05:05:49.537Z,-0.10
2023-03-28T05:08:19.226Z,-0.20
2023-03-28T05:10:47.053Z,-0.40
2023-03-28T05:13:14.921Z,-0.40
2023-03-28T05:15:42.872Z,-0.50
2023-03-28T05:18:09.995Z,-0.50
2023-03-28T05:20:37.252Z,-0.40
2023-03-28T05:23:06.027Z,-0.10
2023-03-28T05:25:33.183Z,0.10
2023-03-28T05:28:01.348Z,-0.10
2023-03-28T05:30:28.338Z,-0.10
2023-03-28T05:32:56.009Z,-0.10
2023-03-28T05:35:23.026Z,-0.10
2023-03-28T05:37:49.907Z,-0.10
2023-03-28T05:40:16.883Z,0.00
2023-03-28T05:42:44.257Z,0.00
2023-03-28T05:45:14.893Z,0.20
2023-03-28T05:47:41.988Z,0.50
2023-03-28T05:50:10.789Z,0.50
2023-03-28T05:52:39.844Z,0.50
2023-03-28T05:55:08.066Z,0.40
2023-03-28T05:57:35.587Z,0.10
2023-03-28T06:00:10.541Z,0.20
2023-03-28T06:02:37.515Z,0.30
2023-03-28T06:05:05.105Z,0.20
2023-03-28T06:07:42.049Z,0.10
2023-03-28T06:10:13.113Z,0.30
2023-03-28T06:12:40.775Z,0.60
2023-03-28T06:15:09.449Z,0.60
2023-03-28T06:17:36.814Z,0.70
2023-03-28T06:20:08.025Z,0.60
2023-03-28T06:22:36.604Z,0.60
2023-03-28T06:25:05.639Z,0.70
2023-03-28T06:27:33.713Z,0.80
2023-03-28T06:30:00.602Z,0.80
2023-03-28T06:32:28.847Z,0.90
2023-03-28T06:34:56.090Z,1.00
2023-03-28T06:37:23.115Z,1.20
2023-03-28T06:39:51.633Z,1.20
2023-03-28T06:42:18.570Z,1.30
2023-03-28T06:44:45.700Z,1.40
2023-03-28T06:47:12.600Z,1.50
2023-03-28T06:49:39.468Z,1.60
2023-03-28T06:52:06.865Z,1.70
2023-03-28T06:54:33.849Z,1.90
2023-03-28T06:57:01.046Z,2.10
2023-03-28T06:59:28.100Z,2.20
2023-03-28T07:01:55.121Z,2.30
2023-03-28T07:04:22.051Z,2.50
2023-03-28T07:06:49.422Z,2.60
2023-03-28T07:09:16.709Z,2.90
2023-03-28T07:11:43.601Z,2.90
2023-03-28T07:14:10.564Z,2.90
2023-03-28T07:16:38.641Z,3.00
2023-03-28T07:19:05.582Z,3.10
2023-03-28T07:21:32.495Z,3.10
2023-03-28T07:23:59.386Z,3.10
2023-03-28T07:26:27.581Z,3.10
2023-03-28T07:28:55.920Z,3.10
2023-03-28T07:31:24.471Z,3.50
2023-03-28T07:33:51.937Z,3.40
2023-03-28T07:36:21.593Z,3.60
2023-03-28T07:38:49.615Z,3.40
2023-03-28T07:41:17.304Z,3.60
2023-03-28T07:43:45.147Z,3.60
2023-03-28T07:46:15.194Z,3.60
2023-03-28T07:48:43.551Z,3.70
2023-03-28T07:51:11.436Z,3.90
2023-03-28T07:53:39.064Z,3.90
2023-03-28T07:56:12.064Z,4.00
2023-03-28T07:58:40.839Z,4.10
2023-03-28T08:01:12.038Z,4.10
2023-03-28T08:03:40.196Z,4.10
2023-03-28T08:06:24.346Z,4.40
2023-03-28T08:08:56.096Z,4.30
2023-03-28T08:11:23.065Z,4.50
2023-03-28T08:13:49.969Z,4.70
2023-03-28T08:16:17.021Z,4.90
2023-03-28T08:18:44.068Z,5.00
2023-03-28T08:21:11.230Z,4.70
2023-03-28T08:23:38.245Z,4.90
2023-03-28T08:26:07.284Z,5.10
2023-03-28T08:28:36.427Z,5.20
2023-03-28T08:31:14.319Z,5.40
2023-03-28T08:33:51.509Z,5.50
2023-03-28T08:36:20.553Z,5.80
2023-03-28T08:38:51.496Z,5.90
2023-03-28T08:41:41.009Z,6.00
2023-03-28T08:44:13.901Z,6.30
2023-03-28T08:46:44.434Z,5.90
2023-03-28T08:49:18.758Z,5.90
2023-03-28T08:51:58.522Z,6.00
2023-03-28T08:54:47.838Z,6.10
2023-03-28T08:57:21.158Z,6.00
2023-03-28T09:00:15.409Z,5.90
2023-03-28T09:02:43.976Z,6.30
2023-03-28T09:05:23.795Z,6.30
2023-03-28T09:08:13.188Z,6.20
2023-03-28T09:10:43.714Z,6.30
2023-03-28T09:13:43.369Z,6.40
2023-03-28T09:16:55.357Z,6.60
2023-03-28T09:19:47.854Z,7.20
2023-03-28T09:22:45.429Z,7.60
2023-03-28T09:25:12.280Z,7.30
2023-03-28T09:28:22.644Z,7.20
2023-03-28T09:30:51.891Z,7.10
2023-03-28T09:33:29.625Z,6.70
2023-03-28T09:35:57.635Z,7.00
2023-03-28T09:39:01.118Z,7.40
2023-03-28T09:41:52.543Z,7.40
2023-03-28T09:44:51.015Z,7.70
2023-03-28T09:47:20.748Z,7.80
2023-03-28T09:49:47.950Z,8.20
2023-03-28T09:52:19.170Z,8.50
2023-03-28T09:54:47.020Z,8.80
2023-03-28T09:57:14.265Z,8.90
2023-03-28T09:59:41.363Z,9.10
2023-03-28T10:02:32.456Z,9.30
2023-03-28T10:04:59.990Z,9.50
2023-03-28T10:07:48.053Z,9.80
2023-03-28T10:10:22.382Z,9.90
2023-03-28T10:12:57.052Z,9.50
2023-03-28T10:15:42.579Z,9.30
2023-03-28T10:18:20.830Z,9.20
2023-03-28T10:20:51.346Z,9.80
2023-03-28T10:23:21.469Z,10.00
2023-03-28T10:25:53.054Z,9.50
2023-03-28T10:28:37.106Z,9.20
2023-03-28T10:31:05.581Z,9.40
2023-03-28T10:33:40.279Z,9.60
2023-03-28T10:36:12.501Z,9.80
2023-03-28T10:38:48.510Z,10.00
2023-03-28T10:41:25.821Z,10.10
2023-03-28T10:43:54.030Z,9.90
2023-03-28T10:46:23.334Z,9.80
2023-03-28T10:49:07.660Z,9.70
2023-03-28T10:51:38.613Z,9.70
2023-03-28T10:54:24.575Z,9.90
2023-03-28T10:57:07.720Z,10.10
2023-03-28T10:59:54.921Z,10.30
2023-03-28T11:02:51.642Z,10.20
2023-03-28T11:05:52.152Z,9.90
2023-03-28T11:09:25.725Z,10.00
2023-03-28T11:12:27.653Z,10.20
2023-03-28T11:15:16.760Z,10.00
2023-03-28T11:18:03.690Z,10.30
2023-03-28T11:21:13.769Z,10.10
2023-03-28T11:23:44.992Z,9.90
2023-03-28T11:26:46.736Z,10.00
2023-03-28T11:29:44.033Z,10.30
2023-03-28T11:32:20.722Z,9.90
2023-03-28T11:35:16.135Z,9.80
2023-03-28T11:38:10.348Z,10.20
2023-03-28T11:40:43.252Z,10.30
2023-03-28T11:43:13.933Z,9.80
2023-03-28T11:45:52.243Z,9.70
2023-03-28T11:48:53.310Z,9.90
2023-03-28T11:51:36.680Z,9.90
2023-03-28T11:54:13.708Z,10.20
2023-03-28T11:57:00.409Z,10.10
2023-03-28T11:59:52.950Z,10.00
2023-03-28T12:02:42.508Z,9.80
2023-03-28T12:05:50.416Z,9.90
2023-03-28T12:08:32.515Z,9.80
2023-03-28T12:11:06.537Z,10.20
2023-03-28T12:13:46.011Z,10.50
2023-03-28T12:16:18.892Z,10.70
2023-03-28T12:18:58.740Z,10.90
2023-03-28T12:21:35.928Z,10.70
2023-03-28T12:24:23.259Z,10.60
2023-03-28T12:27:25.521Z,10.70
2023-03-28T12:30:07.362Z,11.20
2023-03-28T12:32:51.726Z,11.30
2023-03-28T12:35:56.470Z,10.70
2023-03-28T12:38:48.056Z,10.80
2023-03-28T12:41:24.608Z,10.90
2023-03-28T12:43:58.894Z,10.60
2023-03-28T12:46:37.984Z,10.60
2023-03-28T12:49:21.402Z,11.00
2023-03-28T12:51:54.915Z,11.20
2023-03-28T12:54:32.885Z,11.20
2023-03-28T12:57:46.487Z,11.40
2023-03-28T13:00:35.348Z,11.60
2023-03-28T13:03:31.553Z,11.60
2023-03-28T13:06:24.725Z,11.60
2023-03-28T13:09:19.405Z,11.20
2023-03-28T13:12:03.342Z,11.40
2023-03-28T13:14:42.030Z,11.50
2023-03-28T13:17:21.813Z,11.50
2023-03-28T13:19:56.844Z,11.40
2023-03-28T13:22:42.142Z,11.40
2023-03-28T13:25:29.656Z,11.30
2023-03-28T13:28:16.788Z,11.30
2023-03-28T13:30:46.584Z,11.40
2023-03-28T13:33:32.908Z,11.10
2023-03-28T13:36:00.054Z,11.30
2023-03-28T13:38:30.502Z,11.80
2023-03-28T13:41:09.203Z,11.80
2023-03-28T13:43:36.531Z,12.00
2023-03-28T13:46:22.501Z,12.50
2023-03-28T13:49:18.336Z,12.40
2023-03-28T13:51:56.006Z,11.90
2023-03-28T13:54:25.003Z,12.10
2023-03-28T13:56:53.337Z,12.20
2023-03-28T13:59:25.604Z,12.40
2023-03-28T14:01:59.925Z,12.00
2023-03-28T14:04:34.632Z,11.40
2023-03-28T14:07:02.445Z,11.50
2023-03-28T14:09:29.394Z,11.60
2023-03-28T14:12:05.267Z,11.50
2023-03-28T14:14:48.644Z,11.70
2023-03-28T14:17:29.195Z,11.80
2023-03-28T14:20:05.418Z,12.00
2023-03-28T14:22:43.202Z,12.20
2023-03-28T14:25:21.605Z,12.80
2023-03-28T14:27:55.713Z,12.80
2023-03-28T14:30:39.756Z,12.60
2023-03-28T14:33:14.811Z,12.40
2023-03-28T14:35:43.011Z,12.60
2023-03-28T14:38:16.761Z,12.60
2023-03-28T14:40:45.787Z,12.50
2023-03-28T14:43:13.706Z,12.20
2023-03-28T14:45:47.971Z,12.20
2023-03-28T14:48:20.413Z,12.00
2023-03-28T14:50:51.488Z,12.10
2023-03-28T14:53:25.363Z,11.70
2023-03-28T14:55:58.754Z,11.70
2023-03-28T14:58:27.598Z,11.80
2023-03-28T15:01:00.809Z,11.70
2023-03-28T15:03:43.033Z,11.80
2023-03-28T15:06:20.551Z,11.80
2023-03-28T15:08:47.680Z,11.90
2023-03-28T15:11:22.214Z,11.70
2023-03-28T15:14:02.285Z,11.70
2023-03-28T15:16:31.371Z,11.70
2023-03-28T15:19:07.233Z,11.70
2023-03-28T15:21:39.436Z,11.60
2023-03-28T15:24:12.631Z,11.30
2023-03-28T15:26:46.133Z,11.30
2023-03-28T15:29:18.450Z,11.40
2023-03-28T15:31:46.728Z,11.20
2023-03-28T15:34:29.836Z,11.40
2023-03-28T15:37:02.711Z,11.10
2023-03-28T15:39:33.209Z,11.00
2023-03-28T15:42:19.671Z,11.20
2023-03-28T15:45:21.209Z,11.20
2023-03-28T15:47:55.547Z,11.00
2023-03-28T15:50:33.215Z,11.30
2023-03-28T15:53:05.634Z,11.40
2023-03-28T15:55:33.569Z,11.70
2023-03-28T15:58:00.700Z,11.80
2023-03-28T16:00:43.978Z,11.60
2023-03-28T16:03:32.742Z,11.60
2023-03-28T16:06:23.290Z,11.60
2023-03-28T16:09:21.835Z,11.40
2023-03-28T16:12:07.149Z,11.10
2023-03-28T16:14:36.195Z,11.10
2023-03-28T16:17:07.698Z,11.10
2023-03-28T16:19:36.672Z,11.30
2023-03-28T16:22:03.940Z,11.30
2023-03-28T16:24:31.372Z,11.20
2023-03-28T16:26:59.831Z,11.00
2023-03-28T16:29:27.024Z,10.80
2023-03-28T16:31:53.975Z,10.90
2023-03-28T16:34:20.979Z,11.00
2023-03-28T16:36:47.910Z,11.00
2023-03-28T16:39:14.963Z,10.70
2023-03-28T16:41:41.841Z,10.60
2023-03-28T16:44:09.050Z,10.30
2023-03-28T16:46:36.022Z,10.20
2023-03-28T16:49:03.033Z,10.30
2023-03-28T16:51:29.942Z,10.30
2023-03-28T16:53:56.902Z,10.20
2023-03-28T16:56:26.970Z,10.20
2023-03-28T16:58:54.604Z,10.20
2023-03-28T17:01:21.898Z,10.20
2023-03-28T17:03:49.996Z,10.10
2023-03-28T17:06:17.988Z,10.00
2023-03-28T17:08:45.157Z,9.90
2023-03-28T17:11:12.967Z,9.80
2023-03-28T17:13:42.187Z,9.90
2023-03-28T17:16:10.674Z,10.20
2023-03-28T17:18:37.998Z,10.10
2023-03-28T17:21:13.440Z,10.20
2023-03-28T17:23:42.152Z,10.10
2023-03-28T17:26:12.091Z,9.80
2023-03-28T17:28:42.040Z,9.70
2023-03-28T17:31:18.850Z,9.70
2023-03-28T17:33:47.410Z,9.70
2023-03-28T17:36:24.630Z,9.60
2023-03-28T17:38:54.680Z,9.40
2023-03-28T17:41:23.128Z,9.30
2023-03-28T17:43:53.950Z,9.30
2023-03-28T17:46:21.788Z,9.40
2023-03-28T17:48:49.187Z,9.40
2023-03-28T17:51:16.557Z,9.20
2023-03-28T17:53:46.914Z,9.00
2023-03-28T17:56:14.883Z,8.90
2023-03-28T17:58:42.645Z,8.80
2023-03-28T18:01:18.409Z,8.80
2023-03-28T18:03:46.617Z,8.80
2023-03-28T18:06:14.948Z,8.70
2023-03-28T18:08:45.190Z,8.70
2023-03-28T18:11:16.182Z,8.60
2023-03-28T18:13:43.789Z,8.50
2023-03-28T18:16:14.023Z,8.40
2023-03-28T18:18:41.425Z,8.40
2023-03-28T18:21:08.884Z,8.40
2023-03-28T18:23:36.880Z,8.50
2023-03-28T18:26:04.660Z,8.40
2023-03-28T18:28:31.838Z,8.30
2023-03-28T18:31:11.950Z,8.40
2023-03-28T18:33:40.356Z,8.40
2023-03-28T18:36:08.274Z,8.30
2023-03-28T18:38:42.091Z,8.20
2023-03-28T18:41:12.373Z,8.20
2023-03-28T18:43:42.309Z,8.20
2023-03-28T18:46:15.332Z,8.20
2023-03-28T18:48:44.860Z,8.30
2023-03-28T18:51:12.412Z,8.30
2023-03-28T18:53:40.435Z,8.20
2023-03-28T18:56:08.733Z,8.20
2023-03-28T18:58:39.049Z,8.20
2023-03-28T19:01:08.881Z,8.20
2023-03-28T19:03:44.791Z,8.10
2023-03-28T19:06:15.323Z,8.00
2023-03-28T19:08:43.880Z,8.50
2023-03-28T19:11:17.399Z,8.00
2023-03-28T19:13:44.557Z,7.90
2023-03-28T19:16:15.791Z,7.90
2023-03-28T19:18:46.705Z,7.90
2023-03-28T19:21:14.910Z,7.90
2023-03-28T19:23:42.156Z,7.90
2023-03-28T19:26:12.168Z,8.00
2023-03-28T19:28:39.513Z,8.00
2023-03-28T19:31:09.821Z,8.10
2023-03-28T19:33:38.396Z,8.30
2023-03-28T19:36:06.617Z,8.50
2023-03-28T19:38:35.783Z,8.50
2023-03-28T19:41:10.663Z,8.10
2023-03-28T19:43:39.831Z,7.90
2023-03-28T19:46:11.863Z,7.90
2023-03-28T19:48:40.334Z,7.80
2023-03-28T19:51:07.302Z,7.70
2023-03-28T19:53:35.394Z,7.70
2023-03-28T19:56:02.840Z,8.00
2023-03-28T19:58:30.958Z,8.20
2023-03-28T20:00:58.050Z,8.20
2023-03-28T20:03:25.586Z,8.20
2023-03-28T20:05:52.656Z,8.00
2023-03-28T20:08:21.345Z,8.00
2023-03-28T20:10:52.629Z,7.70
2023-03-28T20:13:20.049Z,7.70
2023-03-28T20:15:47.333Z,7.70
2023-03-28T20:18:21.931Z,7.80
2023-03-28T20:20:52.030Z,7.80
2023-03-28T20:23:22.537Z,8.00
2023-03-28T20:25:52.198Z,8.20
2023-03-28T20:28:20.923Z,7.80
2023-03-28T20:30:48.088Z,7.90
2023-03-28T20:33:15.066Z,7.80
2023-03-28T20:35:42.187Z,8.00
2023-03-28T20:38:09.866Z,8.00
2023-03-28T20:40:40.632Z,7.90
2023-03-28T20:43:09.983Z,7.80
2023-03-28T20:45:46.169Z,7.70
2023-03-28T20:48:16.265Z,7.60
2023-03-28T20:50:46.940Z,7.60
2023-03-28T20:53:13.867Z,7.60
2023-03-28T20:55:40.754Z,7.60
2023-03-28T20:58:08.749Z,7.70
2023-03-28T21:00:36.851Z,7.60
2023-03-28T21:03:03.970Z,7.60
2023-03-28T21:05:31.198Z,7.30
2023-03-28T21:07:59.178Z,7.30
2023-03-28T21:10:27.946Z,7.30
2023-03-28T21:12:54.906Z,7.40
2023-03-28T21:15:21.868Z,7.50
2023-03-28T21:17:53.374Z,7.50
2023-03-28T21:20:20.542Z,7.50
2023-03-28T21:22:47.535Z,7.70
2023-03-28T21:25:14.692Z,7.80
2023-03-28T21:27:42.197Z,8.00
2023-03-28T21:30:11.661Z,8.10
2023-03-28T21:32:38.705Z,7.90
2023-03-28T21:35:06.653Z,7.90
2023-03-28T21:37:33.675Z,8.20
2023-03-28T21:40:00.789Z,8.40
2023-03-28T21:42:27.928Z,8.30
2023-03-28T21:44:54.900Z,8.10
2023-03-28T21:47:21.806Z,7.90
2023-03-28T21:49:49.583Z,7.80
2023-03-28T21:52:16.763Z,8.00
2023-03-28T21:54:43.714Z,8.00
2023-03-28T21:57:10.821Z,7.70
2023-03-28T21:59:37.938Z,7.80
2023-03-28T22:02:05.295Z,8.00
2023-03-28T22:04:32.392Z,8.00
2023-03-28T22:06:59.350Z,7.90
2023-03-28T22:09:28.009Z,7.90
2023-03-28T22:11:56.138Z,8.00
2023-03-28T22:14:23.164Z,7.80
2023-03-28T22:16:50.617Z,7.90
2023-03-28T22:19:18.835Z,8.00
2023-03-28T22:21:48.590Z,8.10
2023-03-28T22:24:15.984Z,8.10
2023-03-28T22:26:44.912Z,8.00
2023-03-28T22:29:11.933Z,8.10
2023-03-28T22:31:38.974Z,8.10
2023-03-28T22:34:06.286Z,8.00
2023-03-28T22:36:33.217Z,7.90
2023-03-28T22:39:00.508Z,7.90
2023-03-28T22:41:31.477Z,7.80
2023-03-28T22:43:59.208Z,7.80
2023-03-28T22:46:26.176Z,7.80
2023-03-28T22:48:54.575Z,7.70
2023-03-28T22:51:25.074Z,7.60
2023-03-28T22:53:52.950Z,7.50
2023-03-28T22:56:20.006Z,7.40
2023-03-28T22:58:47.220Z,7.60
2023-03-28T23:01:14.189Z,7.30
2023-03-28T23:03:41.352Z,7.40
2023-03-28T23:06:08.737Z,7.40
2023-03-28T23:08:35.698Z,7.30
2023-03-28T23:11:02.824Z,7.30
2023-03-28T23:13:30.080Z,7.20
2023-03-28T23:15:57.240Z,7.00
2023-03-28T23:18:24.167Z,7.10
2023-03-28T23:20:51.203Z,7.10
2023-03-28T23:23:18.861Z,6.90
2023-03-28T23:25:47.312Z,6.90
2023-03-28T23:28:14.946Z,6.80
2023-03-28T23:30:42.164Z,6.90
2023-03-28T23:33:09.185Z,6.90
2023-03-28T23:35:36.431Z,6.90
2023-03-28T23:38:05.099Z,7.00
2023-03-28T23:40:32.252Z,7.10
2023-03-28T23:42:59.259Z,7.20
2023-03-28T23:45:26.204Z,7.30
2023-03-28T23:47:53.223Z,7.30
2023-03-28T23:50:20.331Z,7.30
2023-03-28T23:52:47.411Z,7.20
2023-03-28T23:55:15.239Z,7.10
2023-03-28T23:57:42.194Z,7.10
